createdAt,value
2019-05-30T00:02:09.121Z,47.20
2019-05-30T00:07:13.122Z,47.30
2019-05-30T00:12:18.168Z,47.10
2019-05-30T00:17:22.838Z,47.10
2019-05-30T00:22:27.583Z,46.90
2019-05-30T00:27:32.298Z,47.00
2019-05-30T00:32:36.663Z,47.10
2019-05-30T00:37:41.324Z,47.20
2019-05-30T00:42:46.074Z,46.80
2019-05-30T00:47:50.407Z,47.10
2019-05-30T00:52:56.362Z,47.20
2019-05-30T00:58:00.642Z,47.30
2019-05-30T01:03:08.465Z,47.10
2019-05-30T01:08:12.323Z,47.10
2019-05-30T01:13:16.628Z,47.30
2019-05-30T01:18:21.131Z,47.30
2019-05-30T01:23:25.763Z,47.50
2019-05-30T01:28:29.783Z,47.40
2019-05-30T01:33:34.294Z,47.60
2019-05-30T01:38:38.534Z,47.50
2019-05-30T01:43:42.535Z,48.00
2019-05-30T01:48:46.419Z,47.90
2019-05-30T01:53:50.955Z,47.80
2019-05-30T01:58:55.147Z,47.90
2019-05-30T02:04:00.953Z,48.00
2019-05-30T02:09:07.497Z,48.20
2019-05-30T02:14:12.103Z,48.70
2019-05-30T02:19:17.039Z,48.50
2019-05-30T02:24:22.116Z,48.10
2019-05-30T02:29:25.992Z,48.70
2019-05-30T02:34:30.165Z,48.80
2019-05-30T02:39:34.696Z,48.90
2019-05-30T02:44:38.820Z,49.20
2019-05-30T02:49:42.695Z,49.10
2019-05-30T02:54:46.667Z,49.00
2019-05-30T02:59:51.017Z,48.80
2019-05-30T03:04:55.323Z,49.20
2019-05-30T03:09:59.519Z,49.20
2019-05-30T03:15:06.764Z,49.20
2019-05-30T03:20:21.518Z,49.30
2019-05-30T03:25:16.940Z,49.40
2019-05-30T03:30:27.306Z,49.40
2019-05-30T03:35:30.685Z,49.60
2019-05-30T03:40:33.356Z,49.50
2019-05-30T03:45:39.275Z,49.60
2019-05-30T03:50:47.179Z,49.80
2019-05-30T03:55:56.712Z,49.60
2019-05-30T04:01:05.759Z,49.90
2019-05-30T04:06:16.743Z,49.80
2019-05-30T04:11:24.072Z,50.60
2019-05-30T04:16:28.345Z,49.90
2019-05-30T04:21:32.187Z,49.90
2019-05-30T04:26:36.713Z,50.30
2019-05-30T04:31:40.590Z,50.20
2019-05-30T04:36:44.444Z,50.40
2019-05-30T04:41:48.632Z,50.40
2019-05-30T04:46:53.144Z,50.50
2019-05-30T04:51:57.386Z,50.50
2019-05-30T04:57:01.361Z,50.50
2019-05-30T05:02:05.491Z,50.60
2019-05-30T05:07:09.338Z,50.90
2019-05-30T05:12:13.962Z,50.80
2019-05-30T05:17:18.829Z,50.80
2019-05-30T05:22:23.400Z,51.00
2019-05-30T05:27:27.679Z,51.00
2019-05-30T05:32:31.569Z,51.10
2019-05-30T05:37:36.020Z,51.00
2019-05-30T05:42:39.995Z,51.30
2019-05-30T05:47:43.845Z,51.50
2019-05-30T05:52:48.018Z,51.50
2019-05-30T05:57:52.141Z,51.80
2019-05-30T06:02:56.854Z,51.90
2019-05-30T06:08:01.136Z,52.20
2019-05-30T06:13:05.367Z,51.90
2019-05-30T06:18:09.390Z,52.00
2019-05-30T06:23:13.298Z,52.10
2019-05-30T06:28:17.971Z,52.10
2019-05-30T06:33:23.476Z,52.10
2019-05-30T06:38:29.425Z,52.40
2019-05-30T06:43:34.181Z,52.00
2019-05-30T06:48:38.487Z,52.20
2019-05-30T06:53:42.444Z,52.00
2019-05-30T06:58:48.989Z,54.30
2019-05-30T07:03:52.648Z,54.80
2019-05-30T07:08:57.011Z,51.80
2019-05-30T07:14:01.289Z,51.00
2019-05-30T07:19:05.316Z,50.40
2019-05-30T07:24:09.860Z,49.20
2019-05-30T07:29:13.991Z,49.40
2019-05-30T07:34:18.131Z,49.60
2019-05-30T07:39:21.990Z,49.90
2019-05-30T07:44:26.811Z,50.90
2019-05-30T07:49:32.368Z,51.40
2019-05-30T07:54:36.662Z,50.50
2019-05-30T07:59:40.514Z,50.10
2019-05-30T08:04:46.873Z,50.00
2019-05-30T08:09:50.323Z,49.80
2019-05-30T08:14:54.163Z,49.90
2019-05-30T08:19:58.331Z,49.60
2019-05-30T08:25:02.621Z,49.90
2019-05-30T08:30:07.085Z,49.50
2019-05-30T08:35:11.473Z,49.90
2019-05-30T08:40:16.227Z,49.60
2019-05-30T08:45:20.803Z,50.00
2019-05-30T08:50:26.539Z,49.20
2019-05-30T08:55:32.390Z,48.80
2019-05-30T09:00:36.656Z,48.60
2019-05-30T09:05:58.140Z,48.80
2019-05-30T09:10:48.290Z,48.90
2019-05-30T09:15:52.627Z,49.20
2019-05-30T09:20:56.994Z,49.00
2019-05-30T09:26:00.959Z,49.50
2019-05-30T09:31:05.239Z,49.20
2019-05-30T09:36:13.131Z,49.00
2019-05-30T09:41:14.829Z,49.50
2019-05-30T09:46:19.367Z,49.90
2019-05-30T09:51:23.535Z,50.70
2019-05-30T09:56:27.691Z,51.00
2019-05-30T10:01:32.337Z,52.00
2019-05-30T10:06:36.911Z,52.50
2019-05-30T10:11:41.159Z,52.40
2019-05-30T10:16:49.949Z,52.60
2019-05-30T10:21:52.037Z,52.50
2019-05-30T10:26:57.441Z,52.20
2019-05-30T10:32:01.662Z,52.20
2019-05-30T10:37:05.578Z,52.60
2019-05-30T10:42:09.610Z,52.30
2019-05-30T10:47:13.955Z,53.20
2019-05-30T10:52:18.442Z,52.90
2019-05-30T10:57:22.455Z,52.60
2019-05-30T11:02:26.756Z,53.00
2019-05-30T11:07:36.974Z,53.50
2019-05-30T11:12:41.171Z,53.30
2019-05-30T11:17:45.405Z,53.50
2019-05-30T11:22:50.071Z,53.50
2019-05-30T11:27:54.813Z,53.60
2019-05-30T11:32:59.467Z,53.10
2019-05-30T11:38:04.071Z,53.10
2019-05-30T11:43:08.358Z,53.00
2019-05-30T11:48:13.362Z,53.00
2019-05-30T11:53:17.305Z,53.10
2019-05-30T11:58:21.791Z,53.20
2019-05-30T12:03:29.256Z,53.00
2019-05-30T12:08:32.082Z,52.90
2019-05-30T12:13:36.223Z,52.90
2019-05-30T12:18:40.450Z,53.20
2019-05-30T12:23:44.772Z,53.20
2019-05-30T12:28:48.647Z,54.00
2019-05-30T12:33:52.549Z,54.00
2019-05-30T12:38:56.487Z,53.60
2019-05-30T12:44:01.367Z,54.00
2019-05-30T12:49:05.525Z,53.00
2019-05-30T12:54:09.722Z,53.00
2019-05-30T12:59:13.652Z,53.20
2019-05-30T13:04:18.134Z,53.10
2019-05-30T13:09:22.314Z,53.20
2019-05-30T13:14:26.170Z,53.90
2019-05-30T13:19:30.379Z,53.10
2019-05-30T13:24:34.334Z,53.10
2019-05-30T13:29:38.562Z,53.00
2019-05-30T13:34:42.937Z,53.40
2019-05-30T13:39:46.839Z,53.30
2019-05-30T13:44:51.028Z,53.30
2019-05-30T13:49:55.222Z,53.30
2019-05-30T13:54:59.429Z,53.40
2019-05-30T14:00:03.810Z,53.50
2019-05-30T14:05:10.628Z,53.20
2019-05-30T14:10:15.700Z,53.50
2019-05-30T14:15:21.498Z,53.40
2019-05-30T14:20:25.817Z,53.80
2019-05-30T14:25:29.928Z,53.50
2019-05-30T14:30:34.088Z,54.20
2019-05-30T14:35:38.287Z,54.80
2019-05-30T14:40:42.469Z,54.60
2019-05-30T14:45:47.268Z,54.30
2019-05-30T14:50:51.151Z,54.30
2019-05-30T14:55:55.740Z,54.40
2019-05-30T15:00:59.927Z,54.20
2019-05-30T15:06:06.864Z,54.10
2019-05-30T15:11:09.980Z,54.50
2019-05-30T15:16:14.515Z,54.30
2019-05-30T15:21:19.103Z,54.40
2019-05-30T15:26:23.031Z,54.30
2019-05-30T15:31:26.944Z,54.40
2019-05-30T15:36:31.416Z,54.80
2019-05-30T15:41:35.360Z,55.00
2019-05-30T15:46:39.803Z,55.80
2019-05-30T15:51:43.700Z,55.50
2019-05-30T15:56:47.971Z,55.30
2019-05-30T16:01:51.914Z,55.90
2019-05-30T16:06:55.799Z,56.50
2019-05-30T16:11:59.667Z,56.30
2019-05-30T16:17:03.596Z,56.20
2019-05-30T16:22:08.106Z,56.50
2019-05-30T16:27:13.580Z,56.90
2019-05-30T16:32:18.601Z,57.00
2019-05-30T16:37:23.183Z,57.30
2019-05-30T16:42:27.111Z,57.30
2019-05-30T16:47:31.446Z,57.00
2019-05-30T16:52:35.539Z,56.20
2019-05-30T16:57:39.995Z,55.90
2019-05-30T17:02:44.490Z,57.00
2019-05-30T17:07:48.807Z,57.50
2019-05-30T17:12:52.886Z,57.30
2019-05-30T17:17:57.459Z,56.80
2019-05-30T17:23:01.883Z,57.10
2019-05-30T17:28:06.221Z,57.50
2019-05-30T17:33:11.029Z,58.30
2019-05-30T17:38:15.163Z,58.60
2019-05-30T17:43:19.086Z,58.80
2019-05-30T17:48:23.600Z,58.80
2019-05-30T17:53:27.976Z,58.70
2019-05-30T17:58:32.286Z,59.30
2019-05-30T18:03:36.139Z,58.50
2019-05-30T18:08:40.397Z,57.60
2019-05-30T18:13:44.267Z,58.10
2019-05-30T18:18:48.229Z,58.70
2019-05-30T18:23:52.378Z,58.60
2019-05-30T18:28:56.570Z,59.70
2019-05-30T18:34:00.424Z,57.90
2019-05-30T18:39:06.410Z,58.40
2019-05-30T18:44:10.743Z,58.20
2019-05-30T18:49:14.947Z,59.00
2019-05-30T18:54:19.162Z,58.80
2019-05-30T18:59:23.373Z,58.60
2019-05-30T19:04:27.983Z,58.60
2019-05-30T19:09:33.421Z,58.80
2019-05-30T19:14:37.891Z,57.80
2019-05-30T19:19:41.738Z,57.90
2019-05-30T19:24:45.663Z,58.30
2019-05-30T19:29:50.164Z,58.60
2019-05-30T19:34:54.723Z,59.10
2019-05-30T19:39:59.472Z,58.70
2019-05-30T19:45:04.542Z,58.70
2019-05-30T19:50:09.374Z,58.10
2019-05-30T19:55:13.664Z,58.40
2019-05-30T20:00:19.476Z,58.90
2019-05-30T20:05:23.811Z,58.60
2019-05-30T20:10:28.043Z,59.80
2019-05-30T20:15:33.227Z,59.40
2019-05-30T20:20:50.450Z,59.50
2019-05-30T20:25:45.923Z,59.50
2019-05-30T20:30:49.995Z,60.00
2019-05-30T20:35:54.542Z,57.60
2019-05-30T20:40:58.534Z,58.40
2019-05-30T20:46:02.426Z,58.40
2019-05-30T20:51:20.501Z,58.90
2019-05-30T20:56:12.900Z,59.10
2019-05-30T21:01:17.194Z,59.20
2019-05-30T21:06:22.003Z,59.30
2019-05-30T21:11:27.108Z,59.10
2019-05-30T21:16:35.552Z,59.40
2019-05-30T21:21:40.026Z,59.20
2019-05-30T21:26:44.853Z,59.40
2019-05-30T21:31:49.499Z,59.40
2019-05-30T21:36:54.461Z,59.40
2019-05-30T21:41:58.299Z,58.70
2019-05-30T21:47:03.028Z,59.50
2019-05-30T21:52:07.251Z,59.00
2019-05-30T21:57:12.100Z,59.10
2019-05-30T22:02:15.943Z,59.30
2019-05-30T22:07:20.991Z,59.20
2019-05-30T22:12:24.960Z,59.30
2019-05-30T22:17:29.555Z,59.40
2019-05-30T22:22:33.483Z,59.30
2019-05-30T22:27:37.666Z,59.20
2019-05-30T22:32:42.619Z,59.50
2019-05-30T22:37:46.947Z,59.30
2019-05-30T22:42:52.226Z,59.60
2019-05-30T22:47:56.792Z,59.90
2019-05-30T22:53:01.454Z,59.70
2019-05-30T22:58:05.471Z,59.60
2019-05-30T23:03:09.963Z,59.60
2019-05-30T23:08:14.235Z,59.90
2019-05-30T23:13:18.467Z,59.60
2019-05-30T23:18:22.322Z,59.80
2019-05-30T23:23:26.429Z,60.10
2019-05-30T23:28:30.555Z,60.20
2019-05-30T23:33:34.794Z,60.80
2019-05-30T23:38:39.089Z,60.20
2019-05-30T23:43:56.727Z,60.10
2019-05-30T23:48:49.550Z,60.40
2019-05-30T23:53:54.079Z,60.40
2019-05-30T23:58:58.880Z,60.30
